Time;durP1;ratioP1;P1;durP2;ratioP2;P2;SDS_P1;SDS_P2;PMS_P1;PMS_P2;Temp;Humidity;BMP_temperature;BMP_pressure;BME280_temperature;BME280_humidity;BME280_pressure;Samples;Min_cycle;Max_cycle;Signal;HPM_P1;HPM_P2
2022/06/10 00:00:21;;;;;;;27.40;14.60;;;17.70;79.60;;;;;;5024080;27;20844;-71
2022/06/10 00:02:48;;;;;;;31.85;18.17;;;17.70;79.70;;;;;;5029072;27;20386;-71
2022/06/10 00:05:17;;;;;;;39.38;22.65;;;17.60;79.70;;;;;;5036284;27;20037;-72
2022/06/10 00:07:44;;;;;;;40.83;26.85;;;17.60;79.60;;;;;;5046401;27;20486;-71
2022/06/10 00:10:14;;;;;;;42.03;29.30;;;17.60;79.70;;;;;;5042962;27;20072;-71
2022/06/10 00:12:41;;;;;;;47.90;29.60;;;17.60;79.90;;;;;;5032093;27;20043;-71
2022/06/10 00:15:09;;;;;;;49.22;31.92;;;17.60;80.00;;;;;;5043300;27;20031;-71
2022/06/10 00:17:35;;;;;;;59.70;36.58;;;17.60;80.20;;;;;;5038170;27;20505;-71
2022/06/10 00:20:03;;;;;;;52.63;36.95;;;17.60;80.30;;;;;;5040437;27;20072;-71
2022/06/10 00:22:30;;;;;;;49.90;37.75;;;17.60;80.20;;;;;;5030013;27;20064;-71
2022/06/10 00:24:56;;;;;;;58.80;37.85;;;17.50;80.10;;;;;;5031170;27;20030;-72
2022/06/10 00:27:23;;;;;;;57.97;38.42;;;17.50;79.90;;;;;;5024812;27;20391;-71
2022/06/10 00:29:49;;;;;;;54.53;38.95;;;17.50;79.40;;;;;;5041364;27;20072;-71
2022/06/10 00:32:17;;;;;;;53.63;40.28;;;17.50;79.20;;;;;;5018590;27;20551;-72
2022/06/10 00:34:44;;;;;;;54.95;38.72;;;17.50;78.70;;;;;;5027716;28;20021;-71
2022/06/10 00:37:11;;;;;;;50.03;36.90;;;17.50;78.30;;;;;;5020557;28;20138;-71
2022/06/10 00:39:37;;;;;;;46.72;36.08;;;17.40;78.00;;;;;;5029550;27;20033;-71
2022/06/10 00:42:06;;;;;;;44.88;33.28;;;17.40;78.00;;;;;;5022976;28;20120;-72
2022/06/10 00:44:42;;;;;;;48.58;34.45;;;17.40;77.70;;;;;;5032805;27;20034;-71
2022/06/10 00:47:38;;;;;;;42.83;32.30;;;17.40;77.60;;;;;;5033459;27;20042;-72
2022/06/10 00:50:22;;;;;;;36.00;25.90;;;17.30;77.20;;;;;;5026042;27;20568;-71
2022/06/10 00:52:59;;;;;;;33.35;18.55;;;17.30;77.10;;;;;;5030743;28;20419;-72
2022/06/10 00:55:30;;;;;;;25.60;15.35;;;17.30;76.90;;;;;;5029398;27;20026;-71
2022/06/10 00:58:09;;;;;;;22.33;13.68;;;17.30;76.50;;;;;;5037727;27;20053;-71
2022/06/10 01:00:37;;;;;;;16.85;10.85;;;17.30;76.40;;;;;;5021439;28;20038;-71
2022/06/10 01:03:05;;;;;;;19.63;10.77;;;17.20;76.00;;;;;;5037925;27;20045;-71
2022/06/10 01:05:32;;;;;;;21.67;11.55;;;17.20;75.80;;;;;;5033313;27;20034;-71
2022/06/10 01:08:06;;;;;;;22.35;12.60;;;17.20;75.60;;;;;;5035351;27;20388;-71
2022/06/10 01:10:51;;;;;;;17.98;11.30;;;17.20;75.60;;;;;;5031295;27;20129;-71
2022/06/10 01:13:44;;;;;;;17.60;9.75;;;17.10;75.40;;;;;;5020166;27;20030;-71
2022/06/10 01:16:29;;;;;;;17.20;10.23;;;17.10;75.20;;;;;;5027559;27;20039;-71
2022/06/10 01:19:20;;;;;;;19.98;10.00;;;17.00;74.90;;;;;;5020405;27;20561;-71
2022/06/10 01:22:05;;;;;;;17.33;9.63;;;17.10;75.50;;;;;;5021615;27;20050;-71
2022/06/10 01:24:34;;;;;;;21.45;10.55;;;17.00;74.60;;;;;;5032071;28;20034;-71
2022/06/10 01:27:48;;;;;;;14.00;9.60;;;17.00;74.70;;;;;;5026332;28;20476;-71
2022/06/10 01:30:44;;;;;;;15.32;8.38;;;17.00;74.60;;;;;;5029300;27;20038;-72
2022/06/10 01:33:32;;;;;;;16.33;8.07;;;16.90;74.30;;;;;;5020346;27;20038;-71
2022/06/10 01:36:10;;;;;;;10.27;6.75;;;16.90;74.10;;;;;;5022389;27;20033;-71
2022/06/10 01:38:40;;;;;;;8.52;5.88;;;16.90;74.00;;;;;;5025219;27;20040;-71
2022/06/10 01:41:28;;;;;;;11.43;5.32;;;16.80;73.70;;;;;;5019140;28;20034;-71
2022/06/10 01:44:10;;;;;;;9.77;5.57;;;16.80;73.60;;;;;;5021328;28;20064;-72
2022/06/10 01:46:43;;;;;;;10.95;5.95;;;16.80;73.50;;;;;;5019171;28;20065;-71
2022/06/10 01:49:13;;;;;;;8.27;5.55;;;16.80;73.60;;;;;;5028541;28;20074;-71
2022/06/10 01:52:06;;;;;;;12.20;5.68;;;16.80;73.40;;;;;;5032491;28;20431;-71
2022/06/10 01:54:41;;;;;;;9.25;4.50;;;16.70;73.10;;;;;;5031585;28;20063;-72
2022/06/10 01:57:09;;;;;;;;;;;16.70;72.90;;;;;;5028230;28;20069;-71
2022/06/10 01:59:50;;;;;;;8.98;4.53;;;16.70;72.70;;;;;;5028244;28;20499;-71
2022/06/10 02:02:21;;;;;;;10.23;4.63;;;16.70;72.70;;;;;;5029328;28;20044;-71
2022/06/10 02:04:58;;;;;;;10.45;4.53;;;16.60;72.40;;;;;;5036395;28;20037;-71
2022/06/10 02:08:02;;;;;;;9.55;5.28;;;16.60;72.40;;;;;;5022194;28;20031;-72
2022/06/10 02:10:49;;;;;;;11.05;5.13;;;16.60;72.20;;;;;;5063813;28;20028;-71
2022/06/10 02:13:22;;;;;;;10.68;5.32;;;16.60;72.10;;;;;;5025431;28;20500;-71
2022/06/10 02:15:52;;;;;;;17.02;5.88;;;16.60;72.00;;;;;;5018314;28;20037;-72
2022/06/10 02:18:28;;;;;;;8.55;4.88;;;16.60;71.90;;;;;;5022444;28;20164;-71
2022/06/10 02:21:03;;;;;;;10.90;5.07;;;16.60;72.00;;;;;;5035517;28;20043;-71
2022/06/10 02:23:35;;;;;;;7.83;4.63;;;16.50;72.00;;;;;;5028100;28;20511;-71
2022/06/10 02:26:41;;;;;;;9.15;4.53;;;16.50;72.00;;;;;;5172368;22;20054;-73
2022/06/10 02:29:14;;;;;;;9.88;4.85;;;16.50;72.00;;;;;;5004407;28;20435;-72
2022/06/10 02:31:46;;;;;;;10.20;4.75;;;16.40;71.90;;;;;;5001264;28;20084;-72
2022/06/10 02:34:13;;;;;;;6.95;4.72;;;16.50;71.80;;;;;;4998284;28;20026;-71
2022/06/10 02:36:57;;;;;;;12.18;4.70;;;16.50;71.90;;;;;;5014434;28;20072;-72
2022/06/10 02:39:37;;;;;;;8.10;3.88;;;16.40;71.90;;;;;;5002649;28;20492;-72
2022/06/10 02:42:13;;;;;;;6.47;4.13;;;16.40;72.00;;;;;;5014908;28;20030;-72
2022/06/10 02:44:53;;;;;;;9.52;5.43;;;16.40;72.10;;;;;;5021280;28;20121;-73
2022/06/10 02:47:27;;;;;;;9.52;4.13;;;16.30;72.20;;;;;;5003773;28;20034;-72
2022/06/10 02:49:54;;;;;;;7.47;4.33;;;16.30;72.10;;;;;;5017071;28;20018;-72
2022/06/10 02:52:24;;;;;;;12.60;4.50;;;16.40;72.10;;;;;;5003029;28;20018;-72
2022/06/10 02:54:51;;;;;;;8.70;3.85;;;16.30;72.00;;;;;;5002558;28;20071;-73
2022/06/10 03:01:11;;;;;;;15.15;4.55;;;16.30;72.10;;;;;;4996289;28;20030;-73
2022/06/10 03:03:25;;;;;;;26.50;5.22;;;16.30;72.40;;;;;;5001458;28;20063;-72
2022/06/10 03:06:11;;;;;;;8.68;4.93;;;16.30;72.50;;;;;;5001880;28;20067;-73
2022/06/10 03:08:40;;;;;;;8.13;3.90;;;16.30;71.90;;;;;;5018064;28;20064;-74
2022/06/10 03:11:22;;;;;;;10.50;4.55;;;16.20;71.30;;;;;;5003069;28;20037;-73
2022/06/10 03:14:16;;;;;;;9.43;4.47;;;16.30;71.20;;;;;;5020285;28;20052;-73
2022/06/10 03:17:04;;;;;;;9.75;5.20;;;16.20;70.50;;;;;;5013853;28;20029;-73
2022/06/10 03:20:09;;;;;;;9.80;4.10;;;16.20;70.40;;;;;;5010949;28;20061;-72
2022/06/10 03:22:35;;;;;;;7.60;4.53;;;16.20;70.10;;;;;;5006383;28;20030;-72
2022/06/10 03:25:24;;;;;;;9.43;4.60;;;16.10;69.80;;;;;;4997658;28;20137;-73
2022/06/10 03:27:54;;;;;;;8.43;4.05;;;16.10;69.50;;;;;;5017333;28;20060;-72
2022/06/10 03:30:26;;;;;;;8.70;3.20;;;16.00;69.40;;;;;;5002867;28;20102;-72
2022/06/10 03:33:21;;;;;;;5.32;3.75;;;16.00;69.30;;;;;;5000772;28;20048;-73
2022/06/10 03:35:52;;;;;;;5.30;3.08;;;16.00;69.30;;;;;;5014711;28;20041;-73
2022/06/10 03:38:19;;;;;;;6.38;3.55;;;16.00;69.20;;;;;;5001220;28;20038;-73
2022/06/10 03:40:54;;;;;;;6.30;3.60;;;16.00;69.10;;;;;;5004535;28;20050;-73
2022/06/10 03:43:21;;;;;;;;;;;15.90;69.10;;;;;;5001754;28;20030;-73
2022/06/10 03:45:59;;;;;;;7.13;3.90;;;15.90;69.10;;;;;;5004192;28;19920;-73
2022/06/10 03:48:31;;;;;;;6.97;4.20;;;15.90;69.10;;;;;;5003708;28;20023;-72
2022/06/10 03:50:58;;;;;;;7.18;3.58;;;15.90;69.10;;;;;;4998978;28;20183;-73
2022/06/10 03:53:26;;;;;;;7.60;4.00;;;15.80;69.00;;;;;;5018346;28;20032;-73
2022/06/10 03:55:52;;;;;;;5.03;3.17;;;15.80;69.00;;;;;;5011304;28;20034;-72
2022/06/10 03:58:20;;;;;;;10.95;4.65;;;15.80;68.80;;;;;;5006235;28;20509;-72
2022/06/10 04:00:47;;;;;;;11.93;4.07;;;15.80;68.80;;;;;;5005661;28;20047;-73
2022/06/10 04:03:13;;;;;;;7.10;3.33;;;15.80;68.70;;;;;;5009233;28;20113;-72
2022/06/10 04:05:40;;;;;;;7.55;4.05;;;15.80;68.80;;;;;;4999348;28;20046;-73
2022/06/10 04:08:07;;;;;;;7.07;4.05;;;15.70;68.60;;;;;;5015381;28;20035;-72
2022/06/10 04:10:34;;;;;;;7.43;4.22;;;15.60;68.40;;;;;;5006927;28;20038;-73
2022/06/10 04:13:00;;;;;;;5.20;3.92;;;15.60;68.30;;;;;;5011296;28;20153;-72
2022/06/10 04:15:27;;;;;;;10.15;4.72;;;15.60;68.30;;;;;;4998575;28;20054;-72
2022/06/10 04:17:56;;;;;;;17.80;5.82;;;15.60;68.10;;;;;;5006692;28;20121;-71
2022/06/10 04:20:26;;;;;;;27.55;14.45;;;15.60;68.80;;;;;;4997028;28;20056;-73
2022/06/10 04:23:01;;;;;;;31.65;12.98;;;15.60;68.80;;;;;;5006930;28;20056;-72
2022/06/10 04:25:29;;;;;;;17.17;8.52;;;15.50;69.20;;;;;;5002435;28;20118;-74
2022/06/10 04:27:55;;;;;;;9.50;5.93;;;15.60;69.20;;;;;;4999537;28;20038;-73
2022/06/10 04:30:29;;;;;;;7.05;5.43;;;15.50;69.00;;;;;;5002926;28;20061;-73
2022/06/10 04:32:56;;;;;;;9.13;4.13;;;15.50;68.80;;;;;;5005901;28;20051;-73
2022/06/10 04:35:24;;;;;;;6.70;3.58;;;15.50;68.60;;;;;;5001949;28;20045;-72
2022/06/10 04:37:52;;;;;;;16.05;4.13;;;15.50;68.20;;;;;;5007994;28;20026;-72
2022/06/10 04:40:22;;;;;;;12.98;5.00;;;15.50;67.90;;;;;;5011782;28;20040;-72
2022/06/10 04:42:50;;;;;;;28.00;14.65;;;15.50;67.90;;;;;;4998204;28;20038;-72
2022/06/10 04:45:19;;;;;;;17.08;11.30;;;15.40;68.30;;;;;;4997804;28;20098;-72
2022/06/10 04:47:47;;;;;;;14.40;6.20;;;15.40;68.10;;;;;;5010103;28;20381;-70
2022/06/10 04:50:15;;;;;;;11.90;5.32;;;15.40;67.90;;;;;;5026570;28;20034;-71
2022/06/10 04:52:42;;;;;;;12.20;5.30;;;15.30;67.80;;;;;;5003586;28;20034;-69
2022/06/10 04:55:09;;;;;;;6.53;4.25;;;15.30;67.80;;;;;;4999352;28;20046;-73
2022/06/10 04:57:36;;;;;;;5.95;4.25;;;15.30;67.80;;;;;;5002540;28;20069;-72
2022/06/10 05:00:08;;;;;;;9.75;4.90;;;15.30;67.90;;;;;;4988926;28;20048;-72
2022/06/10 05:02:35;;;;;;;10.40;4.50;;;15.20;67.60;;;;;;5010711;28;20029;-72
2022/06/10 05:05:02;;;;;;;7.18;4.75;;;15.20;67.60;;;;;;5002465;28;20042;-72
2022/06/10 05:07:28;;;;;;;8.40;4.03;;;15.20;67.40;;;;;;4994482;28;20030;-73
2022/06/10 05:09:56;;;;;;;9.32;4.65;;;15.20;67.40;;;;;;5012528;28;20128;-73
2022/06/10 05:12:22;;;;;;;5.47;4.45;;;15.20;67.30;;;;;;5016929;28;20047;-72
2022/06/10 05:14:49;;;;;;;7.63;4.47;;;15.10;67.20;;;;;;4997726;28;20565;-72
2022/06/10 05:17:15;;;;;;;7.88;3.75;;;15.10;67.30;;;;;;5018497;28;20024;-72
2022/06/10 05:19:42;;;;;;;21.17;5.65;;;15.10;67.30;;;;;;5001610;28;20041;-72
2022/06/10 05:22:08;;;;;;;21.13;5.25;;;15.10;67.60;;;;;;5017985;28;20390;-73
2022/06/10 05:24:35;;;;;;;19.00;5.90;;;15.10;67.70;;;;;;5008610;28;20030;-72
2022/06/10 05:27:01;;;;;;;20.45;7.13;;;15.10;67.70;;;;;;4998397;28;20042;-72
2022/06/10 05:29:28;;;;;;;24.63;5.15;;;15.10;67.90;;;;;;4995633;28;20093;-71
2022/06/10 05:31:54;;;;;;;15.88;5.15;;;15.10;68.00;;;;;;5014275;28;20026;-71
2022/06/10 05:37:06;;;;;;;9.73;4.65;;;15.10;67.90;;;;;;5003038;28;20404;-71
2022/06/10 05:39:32;;;;;;;7.05;4.78;;;15.00;67.90;;;;;;5002591;28;20361;-72
2022/06/10 05:42:05;;;;;;;12.05;4.85;;;15.00;68.00;;;;;;4999429;28;20030;-71
2022/06/10 05:44:37;;;;;;;7.90;4.47;;;15.00;68.00;;;;;;5026075;28;20042;-71
2022/06/10 05:47:07;;;;;;;7.35;4.47;;;15.00;67.90;;;;;;5007651;28;20507;-71
2022/06/10 05:49:36;;;;;;;5.47;3.90;;;14.90;68.00;;;;;;5006822;28;20113;-72
2022/06/10 05:52:02;;;;;;;7.38;4.75;;;14.90;67.90;;;;;;5006622;28;20030;-71
2022/06/10 05:54:29;;;;;;;11.63;5.90;;;14.90;68.00;;;;;;5006571;28;20433;-72
2022/06/10 05:56:55;;;;;;;8.25;5.20;;;14.90;68.10;;;;;;5006223;28;20048;-73
2022/06/10 05:59:22;;;;;;;12.70;5.60;;;14.90;68.20;;;;;;5008963;28;20034;-72
2022/06/10 06:01:49;;;;;;;9.32;5.53;;;14.90;68.20;;;;;;5002567;28;20113;-72
2022/06/10 06:04:16;;;;;;;8.45;5.30;;;14.90;68.10;;;;;;5001206;28;20034;-73
2022/06/10 06:06:43;;;;;;;15.55;5.50;;;14.90;67.90;;;;;;5004493;28;20057;-73
2022/06/10 06:09:14;;;;;;;9.95;5.22;;;14.90;68.00;;;;;;5006192;28;20050;-73
2022/06/10 06:11:41;;;;;;;6.43;4.65;;;14.80;68.10;;;;;;5007509;28;20045;-72
2022/06/10 06:14:08;;;;;;;8.73;5.68;;;14.80;68.10;;;;;;5004704;28;20154;-72
2022/06/10 06:16:35;;;;;;;11.98;6.85;;;14.80;68.30;;;;;;5014141;28;20027;-72
2022/06/10 06:19:02;;;;;;;8.77;5.32;;;14.80;68.50;;;;;;5012583;28;20522;-73
2022/06/10 06:21:29;;;;;;;8.75;4.80;;;14.80;68.60;;;;;;4997855;28;20033;-73
2022/06/10 06:23:55;;;;;;;10.40;5.72;;;14.80;68.70;;;;;;5001089;28;20057;-73
2022/06/10 06:26:22;;;;;;;8.40;5.07;;;14.80;68.80;;;;;;4998151;28;20099;-72
2022/06/10 06:28:48;;;;;;;14.65;5.40;;;14.70;68.90;;;;;;5012879;28;20492;-73
2022/06/10 06:31:15;;;;;;;11.95;5.72;;;14.70;69.10;;;;;;5016789;28;20030;-72
2022/06/10 06:33:41;;;;;;;18.60;5.65;;;14.80;69.10;;;;;;4999381;28;20119;-73
2022/06/10 06:36:15;;;;;;;11.57;5.63;;;14.80;69.10;;;;;;5012166;28;20514;-72
2022/06/10 06:38:41;;;;;;;13.68;5.68;;;14.80;69.10;;;;;;4999211;28;20027;-72
2022/06/10 06:41:09;;;;;;;16.58;6.97;;;14.80;69.00;;;;;;5006184;28;21009;-72
2022/06/10 06:43:36;;;;;;;12.68;6.03;;;14.80;69.20;;;;;;5003615;28;20033;-73
2022/06/10 06:46:03;;;;;;;9.52;5.88;;;14.80;69.20;;;;;;5020430;28;20411;-73
2022/06/10 06:48:30;;;;;;;11.90;5.85;;;14.80;69.40;;;;;;4999995;28;20041;-73
2022/06/10 06:50:56;;;;;;;11.05;5.22;;;14.80;69.80;;;;;;5006421;28;20532;-73
2022/06/10 06:53:23;;;;;;;12.10;5.78;;;14.80;70.10;;;;;;5021854;28;20197;-73
2022/06/10 06:55:49;;;;;;;11.32;5.72;;;14.80;70.10;;;;;;5002177;28;20034;-72
2022/06/10 06:58:18;;;;;;;11.30;6.38;;;14.80;70.30;;;;;;5014548;28;20023;-73
2022/06/10 07:00:45;;;;;;;11.88;6.03;;;14.80;70.70;;;;;;5000741;28;20038;-73
2022/06/10 07:03:11;;;;;;;13.20;5.32;;;14.80;71.00;;;;;;5022087;28;20443;-73
2022/06/10 07:05:38;;;;;;;32.22;7.82;;;14.80;71.20;;;;;;5005627;28;20053;-73
2022/06/10 07:08:05;;;;;;;20.67;6.28;;;14.80;71.50;;;;;;5001244;28;20085;-73
2022/06/10 07:10:31;;;;;;;19.77;6.28;;;14.90;72.20;;;;;;4994442;28;20038;-72
2022/06/10 07:12:58;;;;;;;17.13;6.93;;;14.90;72.70;;;;;;5024386;28;20020;-73
2022/06/10 07:15:25;;;;;;;15.38;7.30;;;14.90;73.00;;;;;;4997674;28;20034;-73
2022/06/10 07:17:51;;;;;;;14.82;7.57;;;15.00;73.10;;;;;;5010864;28;20488;-73
2022/06/10 07:20:29;;;;;;;19.30;7.22;;;15.00;72.90;;;;;;5002458;28;20480;-73
2022/06/10 07:22:56;;;;;;;13.63;6.40;;;15.00;72.80;;;;;;5016292;28;20376;-73
2022/06/10 07:25:22;;;;;;;16.83;6.85;;;15.00;72.80;;;;;;5005001;28;20072;-73
2022/06/10 07:27:52;;;;;;;25.85;7.72;;;15.00;73.00;;;;;;4999731;28;20022;-73
2022/06/10 07:30:21;;;;;;;13.10;6.78;;;15.10;73.30;;;;;;5002768;28;20031;-73
2022/06/10 07:32:48;;;;;;;15.55;7.68;;;15.10;73.40;;;;;;5006842;28;20602;-73
2022/06/10 07:35:17;;;;;;;23.65;9.25;;;15.10;73.70;;;;;;4998268;28;20061;-73
2022/06/10 07:37:43;;;;;;;14.00;6.35;;;15.20;74.00;;;;;;5001721;28;20038;-74
2022/06/10 07:41:56;;;;;;;19.80;7.68;;;15.20;74.30;;;;;;5002006;28;20029;-72
2022/06/10 07:42:58;;;;;;;16.73;6.70;;;15.20;74.50;;;;;;5004894;28;20405;-73
2022/06/10 07:45:24;;;;;;;13.65;6.25;;;15.30;74.70;;;;;;5006403;28;20042;-73
2022/06/10 07:47:51;;;;;;;17.00;6.57;;;15.30;74.90;;;;;;5022367;28;20105;-73
2022/06/10 07:50:17;;;;;;;16.13;7.97;;;15.40;75.00;;;;;;5001355;28;20030;-74
2022/06/10 07:52:44;;;;;;;17.63;8.15;;;15.40;75.20;;;;;;5004764;28;20037;-72
2022/06/10 07:55:10;;;;;;;20.27;7.10;;;15.40;75.30;;;;;;5015213;28;20054;-73
2022/06/10 07:57:37;;;;;;;15.45;7.32;;;15.50;75.40;;;;;;4998359;28;20421;-74
2022/06/10 08:00:04;;;;;;;14.57;7.32;;;15.50;75.40;;;;;;5012993;28;20042;-73
2022/06/10 08:02:30;;;;;;;15.35;7.15;;;15.50;75.50;;;;;;5009145;28;20480;-73
2022/06/10 08:04:57;;;;;;;24.98;9.65;;;15.60;75.40;;;;;;5006815;28;20026;-72
2022/06/10 08:07:23;;;;;;;20.88;10.05;;;15.60;75.30;;;;;;4998396;28;20092;-72
2022/06/10 08:09:50;;;;;;;23.83;9.27;;;15.70;75.40;;;;;;4996411;28;20467;-72
2022/06/10 08:12:16;;;;;;;23.88;8.93;;;15.70;75.40;;;;;;5004990;28;20026;-73
2022/06/10 08:14:43;;;;;;;19.30;9.23;;;15.80;75.40;;;;;;5004366;28;20127;-73
2022/06/10 08:17:09;;;;;;;24.95;8.93;;;15.80;75.40;;;;;;5040129;28;20078;-73
2022/06/10 08:19:36;;;;;;;22.88;10.02;;;15.80;75.60;;;;;;4989203;28;20396;-72
2022/06/10 08:24:47;;;;;;;23.20;9.73;;;15.90;75.80;;;;;;5017709;28;20045;-72
2022/06/10 08:27:14;;;;;;;17.67;10.23;;;15.90;75.80;;;;;;5005265;28;20125;-74
2022/06/10 08:29:40;;;;;;;25.80;9.45;;;16.00;75.70;;;;;;5005933;28;20038;-73
2022/06/10 08:32:07;;;;;;;23.77;10.00;;;16.00;75.60;;;;;;4997250;28;20123;-72
2022/06/10 08:34:34;;;;;;;21.40;9.85;;;16.10;75.50;;;;;;5015510;28;20114;-72
2022/06/10 08:37:01;;;;;;;54.28;16.17;;;16.10;75.50;;;;;;5005685;28;20105;-73
2022/06/10 08:39:29;;;;;;;26.80;10.50;;;16.10;75.60;;;;;;5018242;28;20022;-74
2022/06/10 08:42:04;;;;;;;24.27;10.63;;;16.20;75.80;;;;;;4998997;28;20472;-73
2022/06/10 08:44:45;;;;;;;29.20;11.68;;;16.30;76.10;;;;;;5012173;28;20477;-71
2022/06/10 08:47:21;;;;;;;22.80;12.52;;;16.30;76.70;;;;;;5003243;28;20070;-72
2022/06/10 08:49:47;;;;;;;;;;;16.40;77.10;;;;;;5023964;28;20026;-71
2022/06/10 08:52:44;;;;;;;22.02;10.02;;;16.40;77.50;;;;;;5000510;28;20397;-72
2022/06/10 08:55:17;;;;;;;16.38;9.18;;;16.50;77.80;;;;;;5002614;28;20049;-73
2022/06/10 08:57:48;;;;;;;18.77;9.85;;;16.50;78.00;;;;;;4996166;28;20045;-72
2022/06/10 09:00:36;;;;;;;35.22;10.68;;;16.60;78.00;;;;;;4997727;28;20038;-72
2022/06/10 09:03:22;;;;;;;27.77;10.10;;;16.60;78.10;;;;;;5000669;28;20381;-72
2022/06/10 09:05:50;;;;;;;;;;;16.70;78.20;;;;;;4997789;28;20139;-73
2022/06/10 09:08:20;;;;;;;31.65;11.57;;;16.80;78.20;;;;;;5017895;28;19910;-72
2022/06/10 09:10:53;;;;;;;16.70;8.77;;;16.80;78.00;;;;;;5000554;28;20453;-72
2022/06/10 09:13:34;;;;;;;16.90;7.97;;;16.90;78.00;;;;;;5001388;28;20105;-72
2022/06/10 09:16:19;;;;;;;20.15;8.20;;;17.00;77.90;;;;;;5001440;28;20426;-72
2022/06/10 09:19:04;;;;;;;29.95;9.68;;;17.00;77.60;;;;;;5011205;28;20028;-72
2022/06/10 09:22:02;;;;;;;26.42;10.30;;;17.10;77.10;;;;;;5006450;28;20034;-72
2022/06/10 09:24:34;;;;;;;26.65;9.23;;;17.10;76.00;;;;;;5000808;28;20065;-72
2022/06/10 09:27:21;;;;;;;24.38;7.85;;;17.20;75.80;;;;;;4998864;28;20501;-72
2022/06/10 09:29:48;;;;;;;28.08;7.40;;;17.30;74.50;;;;;;5012845;28;20063;-72
2022/06/10 09:32:41;;;;;;;19.27;8.27;;;17.40;73.70;;;;;;5003291;28;20030;-72
2022/06/10 09:35:25;;;;;;;26.77;8.57;;;17.40;71.70;;;;;;4995807;28;20045;-73
2022/06/10 09:38:00;;;;;;;24.45;7.20;;;17.50;70.90;;;;;;4997518;28;20034;-72
2022/06/10 09:40:37;;;;;;;25.58;8.38;;;17.60;71.00;;;;;;5011515;28;20014;-72
2022/06/10 09:43:23;;;;;;;22.00;9.02;;;17.70;70.40;;;;;;5004019;28;20069;-73
2022/06/10 09:45:49;;;;;;;25.33;7.70;;;17.80;69.80;;;;;;4996214;28;20087;-72
2022/06/10 09:48:49;;;;;;;20.60;7.60;;;17.90;69.90;;;;;;4995442;28;20392;-74
2022/06/10 09:51:51;;;;;;;29.45;9.43;;;18.00;70.10;;;;;;4999802;28;20034;-74
2022/06/10 09:54:35;;;;;;;35.25;9.90;;;18.10;70.50;;;;;;5017661;28;20030;-72
2022/06/10 09:57:20;;;;;;;26.90;7.50;;;18.20;71.20;;;;;;4998995;28;20447;-72
2022/06/10 09:59:55;;;;;;;28.33;6.77;;;18.30;71.50;;;;;;5009525;28;20042;-74
2022/06/10 10:02:36;;;;;;;17.92;6.28;;;18.40;69.80;;;;;;4994672;28;20827;-75
2022/06/10 10:05:30;;;;;;;11.55;3.10;;;18.60;68.60;;;;;;5000093;28;20058;-75
2022/06/10 10:08:21;;;;;;;4.97;2.80;;;18.70;63.50;;;;;;5002553;28;20484;-72
2022/06/10 10:10:55;;;;;;;3.50;1.80;;;18.90;59.30;;;;;;4998942;28;20061;-72
2022/06/10 10:13:49;;;;;;;3.42;2.00;;;19.10;56.30;;;;;;5014848;28;20062;-73
2022/06/10 10:16:34;;;;;;;7.47;2.15;;;19.20;54.70;;;;;;5005083;28;20026;-72
2022/06/10 10:19:52;;;;;;;8.35;2.72;;;19.30;54.00;;;;;;4996601;28;20507;-73
2022/06/10 10:22:51;;;;;;;8.63;3.28;;;19.50;53.80;;;;;;5005928;28;20038;-72
2022/06/10 10:25:23;;;;;;;10.63;4.07;;;19.70;53.90;;;;;;5005983;28;20043;-72
2022/06/10 10:27:51;;;;;;;22.75;3.92;;;19.80;55.10;;;;;;5005126;28;20026;-75
2022/06/10 10:30:39;;;;;;;15.35;4.10;;;19.90;54.70;;;;;;5013255;28;20545;-72
2022/06/10 10:33:12;;;;;;;11.88;3.70;;;20.00;55.70;;;;;;4999033;28;20038;-72
2022/06/10 10:35:53;;;;;;;12.27;2.72;;;20.10;55.00;;;;;;5000030;28;20034;-72
2022/06/10 10:38:36;;;;;;;8.77;2.65;;;20.20;53.80;;;;;;5004138;28;20086;-72
2022/06/10 10:41:38;;;;;;;8.43;2.08;;;20.30;52.60;;;;;;5003961;28;20059;-72
2022/06/10 10:44:20;;;;;;;6.53;1.80;;;20.40;50.50;;;;;;5020903;28;20422;-73
2022/06/10 10:47:14;;;;;;;3.80;1.75;;;20.50;50.00;;;;;;5002658;28;20038;-73
2022/06/10 10:50:03;;;;;;;11.93;1.95;;;20.60;48.50;;;;;;5028439;28;20046;-73
2022/06/10 10:52:35;;;;;;;9.15;2.92;;;20.80;47.80;;;;;;5016486;28;20522;-73
2022/06/10 10:55:14;;;;;;;7.45;2.20;;;20.90;48.50;;;;;;5022710;28;20038;-73
2022/06/10 10:57:57;;;;;;;9.43;2.63;;;21.00;48.50;;;;;;5011053;28;20646;-72
2022/06/10 11:00:43;;;;;;;2.85;1.35;;;21.10;48.70;;;;;;5005546;28;20057;-72
2022/06/10 11:03:29;;;;;;;;;;;21.20;48.20;;;;;;5001837;28;20030;-72
2022/06/10 11:05:59;;;;;;;4.93;1.67;;;21.30;48.30;;;;;;5005607;28;19921;-72
2022/06/10 11:08:34;;;;;;;2.95;1.65;;;21.40;47.50;;;;;;5011818;28;20508;-72
2022/06/10 11:11:24;;;;;;;7.60;1.75;;;21.50;47.00;;;;;;5003233;28;20434;-72
2022/06/10 11:13:53;;;;;;;6.32;2.03;;;21.50;46.80;;;;;;5004216;28;20038;-72
2022/06/10 11:16:34;;;;;;;9.60;1.60;;;21.60;46.10;;;;;;5006933;28;20026;-73
2022/06/10 11:19:13;;;;;;;12.18;2.40;;;21.70;45.20;;;;;;5000558;28;20017;-72
2022/06/10 11:21:53;;;;;;;5.07;1.95;;;21.80;46.00;;;;;;5024554;28;20084;-72
2022/06/10 11:24:25;;;;;;;4.18;2.08;;;21.90;45.70;;;;;;5012518;28;20036;-74
2022/06/10 11:26:58;;;;;;;8.65;2.55;;;22.00;46.90;;;;;;4998844;28;20053;-73
2022/06/10 11:29:26;;;;;;;4.32;1.90;;;22.00;45.00;;;;;;4998126;28;20076;-73
2022/06/10 11:32:01;;;;;;;4.78;1.67;;;22.10;47.00;;;;;;4997636;28;20055;-72
2022/06/10 11:34:38;;;;;;;4.97;2.17;;;22.20;46.60;;;;;;5013040;28;20080;-72
2022/06/10 11:37:34;;;;;;;3.85;1.88;;;22.30;45.30;;;;;;4999411;28;20030;-72
2022/06/10 11:40:14;;;;;;;7.10;2.38;;;22.40;45.00;;;;;;5005606;28;20034;-72
2022/06/10 11:43:06;;;;;;;4.85;2.03;;;22.40;43.90;;;;;;4998795;28;20038;-74
2022/06/10 11:45:40;;;;;;;6.25;2.17;;;22.50;43.50;;;;;;5004932;28;20042;-72
2022/06/10 11:48:44;;;;;;;5.05;2.53;;;22.60;43.80;;;;;;5023805;28;20030;-72
2022/06/10 11:51:29;;;;;;;12.57;2.15;;;22.60;43.60;;;;;;4998400;28;20035;-72
2022/06/10 11:54:18;;;;;;;3.88;2.28;;;22.70;43.30;;;;;;5020318;28;20022;-72
2022/06/10 12:00:04;;;;;;;9.90;2.42;;;22.90;42.40;;;;;;5003576;28;20446;-72
2022/06/10 12:02:50;;;;;;;2.22;1.67;;;23.00;42.70;;;;;;5008007;28;20022;-73
2022/06/10 12:05:23;;;;;;;3.40;1.58;;;23.00;42.30;;;;;;5003910;28;20120;-73
2022/06/10 12:08:05;;;;;;;5.38;2.95;;;23.10;42.10;;;;;;5006463;28;20111;-73
2022/06/10 12:10:47;;;;;;;6.30;1.60;;;23.20;42.30;;;;;;5000545;28;20477;-75
2022/06/10 12:13:16;;;;;;;3.10;1.40;;;23.20;42.70;;;;;;5018936;28;20084;-73
2022/06/10 12:15:50;;;;;;;3.83;1.52;;;23.30;42.40;;;;;;4998697;28;20021;-73
2022/06/10 12:18:18;;;;;;;4.45;1.48;;;23.30;42.40;;;;;;5000922;28;20121;-75
2022/06/10 12:20:54;;;;;;;8.20;1.73;;;23.40;41.60;;;;;;5008923;28;20063;-73
2022/06/10 12:23:25;;;;;;;11.55;2.00;;;23.40;41.90;;;;;;4999788;28;20549;-73
2022/06/10 12:25:55;;;;;;;8.05;1.98;;;23.50;41.90;;;;;;4997125;28;20046;-73
2022/06/10 12:28:30;;;;;;;8.02;2.40;;;23.50;41.30;;;;;;5002442;28;20117;-72
2022/06/10 12:31:15;;;;;;;3.83;1.83;;;23.60;41.10;;;;;;5010605;28;20389;-72
2022/06/10 12:33:54;;;;;;;10.15;1.88;;;23.60;41.10;;;;;;5004713;28;20027;-74
2022/06/10 12:36:46;;;;;;;4.97;1.67;;;23.60;40.80;;;;;;4996424;28;20565;-72
2022/06/10 12:39:23;;;;;;;5.25;1.40;;;23.70;40.20;;;;;;5007126;28;20038;-72
2022/06/10 12:41:58;;;;;;;8.07;1.50;;;23.70;40.10;;;;;;4996514;28;20076;-73
2022/06/10 12:44:29;;;;;;;10.48;2.05;;;23.70;38.50;;;;;;5001410;28;20038;-73
2022/06/10 12:47:01;;;;;;;6.43;2.00;;;23.80;38.30;;;;;;5017066;28;20127;-71
2022/06/10 12:49:47;;;;;;;5.65;2.03;;;23.80;37.90;;;;;;4992242;28;20463;-73
2022/06/10 12:52:38;;;;;;;4.50;1.55;;;23.80;37.60;;;;;;5005584;28;20034;-73
2022/06/10 12:55:32;;;;;;;2.50;1.48;;;23.90;37.90;;;;;;4998721;28;20393;-73
2022/06/10 12:57:58;;;;;;;6.65;3.10;;;23.90;38.30;;;;;;5010700;28;20049;-73
2022/06/10 13:00:42;;;;;;;6.70;2.88;;;23.90;38.10;;;;;;5007673;28;20046;-73
2022/06/10 13:03:15;;;;;;;10.63;4.75;;;24.00;37.80;;;;;;5002648;28;20113;-73
2022/06/10 13:05:41;;;;;;;10.13;4.60;;;24.00;38.00;;;;;;5000889;28;20038;-73
2022/06/10 13:08:39;;;;;;;10.23;4.82;;;24.00;37.90;;;;;;4997919;28;20038;-73
2022/06/10 13:11:09;;;;;;;6.40;2.42;;;24.10;37.40;;;;;;5007517;28;20129;-74
2022/06/10 13:13:36;;;;;;;64.18;37.22;;;24.10;37.20;;;;;;5011479;28;20033;-73
2022/06/10 13:16:38;;;;;;;93.70;51.90;;;24.10;36.30;;;;;;5012604;28;20030;-73
2022/06/10 13:19:24;;;;;;;269.98;153.32;;;24.10;36.50;;;;;;5004676;28;20389;-73
2022/06/10 13:21:51;;;;;;;395.90;245.35;;;24.10;36.80;;;;;;4998985;28;20030;-74
2022/06/10 13:24:17;;;;;;;425.80;266.48;;;24.00;36.90;;;;;;5013930;28;20115;-73
2022/06/10 13:26:44;;;;;;;485.98;319.40;;;24.00;37.30;;;;;;5009144;28;20041;-73
2022/06/10 13:29:21;;;;;;;488.05;321.02;;;24.00;37.40;;;;;;5005044;28;20032;-72